Terminal Aerodrome Forecast
Issued by NWS

Home | Current Version | Previous Version | Text Only | Print | Product List | Glossary On
Versions: 1 2 3 4 5 6 7 8 9 10 11 12 13 14 15 16 17
562
FTUS45 KMSO 050548 AAA
TAFSMN
TAF AMD
KSMN 050548Z 0506/0606 34012KT P6SM BKN060
     FM050800 VRB06KT P6SM BKN070
      AMD LTD TO CLD VIS AND WIND=

USA.gov is the U.S. government's official web portal to all federal, state and local government web resources and services.